Time;durP1;ratioP1;P1;durP2;ratioP2;P2;SDS_P1;SDS_P2;PMS_P1;PMS_P2;Temp;Humidity;BMP_temperature;BMP_pressure;BME280_temperature;BME280_humidity;BME280_pressure;Samples;Min_cycle;Max_cycle;Signal;HPM_P1;HPM_P2
2023/10/27 00:01:34;;;;;;;;;1.33;1.33;;;;;13.38;94.18;98608.81;5078511;27;45287;-81
2023/10/27 00:04:00;;;;;;;;;0.00;0.00;;;;;13.41;94.24;98616.56;5079317;27;45571;-88
2023/10/27 00:06:27;;;;;;;;;1.00;1.00;;;;;13.33;95.12;98607.63;5081064;27;45257;-84
2023/10/27 00:08:52;;;;;;;;;4.00;2.00;;;;;13.31;94.86;98605.09;5089766;27;46354;-83
2023/10/27 00:11:18;;;;;;;;;2.00;2.00;;;;;13.35;94.70;98609.13;5079725;27;45494;-80
2023/10/27 00:13:43;;;;;;;;;1.67;1.00;;;;;13.31;94.99;98613.13;5080245;28;45297;-85
2023/10/27 00:16:10;;;;;;;;;2.33;1.00;;;;;13.21;95.08;98596.31;5080550;27;45440;-88
2023/10/27 00:18:35;;;;;;;;;2.00;2.00;;;;;13.34;95.42;98617.31;5085423;27;46444;-82
2023/10/27 00:21:01;;;;;;;;;3.00;1.67;;;;;13.22;95.17;98614.00;5079456;28;45528;-87
2023/10/27 00:23:26;;;;;;;;;3.33;2.00;;;;;13.23;95.44;98615.69;5079502;27;45285;-87
2023/10/27 00:25:51;;;;;;;;;1.00;1.00;;;;;13.11;95.38;98596.34;5078532;28;50506;-89
2023/10/27 00:28:17;;;;;;;;;2.00;2.00;;;;;13.34;95.05;98630.66;5079649;27;46041;-84
2023/10/27 00:30:43;;;;;;;;;2.33;1.00;;;;;13.27;95.44;98617.88;5080671;27;45321;-83
2023/10/27 00:33:08;;;;;;;;;2.00;2.00;;;;;13.19;95.56;98603.63;5083207;27;45234;-91
2023/10/27 00:35:33;;;;;;;;;2.00;2.00;;;;;13.34;95.35;98631.50;5086958;27;45330;-91
2023/10/27 00:38:00;;;;;;;;;2.00;2.00;;;;;13.38;95.21;98640.03;5089275;28;59508;-92
2023/10/27 00:40:25;;;;;;;;;3.67;2.00;;;;;13.35;95.04;98625.16;5085106;27;45162;-88
2023/10/27 00:42:51;;;;;;;;;3.00;3.00;;;;;13.23;94.67;98607.69;5082826;27;45255;-90
2023/10/27 00:45:16;;;;;;;;;2.00;2.00;;;;;13.28;95.03;98618.72;5093325;27;53661;-86
2023/10/27 00:47:42;;;;;;;;;2.00;2.00;;;;;13.46;95.07;98648.13;5091428;27;45334;-82
2023/10/27 00:50:08;;;;;;;;;3.00;2.00;;;;;13.40;94.55;98633.53;5086647;27;45279;-88
2023/10/27 00:52:34;;;;;;;;;4.00;2.00;;;;;13.46;94.53;98637.44;5087182;28;45417;-84
2023/10/27 00:55:00;;;;;;;;;1.67;1.67;;;;;13.46;95.20;98648.97;5095157;27;44803;-84
2023/10/27 00:57:27;;;;;;;;;2.00;2.00;;;;;13.17;94.83;98600.25;5102546;27;46238;-84
2023/10/27 00:59:53;;;;;;;;;3.00;1.33;;;;;13.45;94.77;98654.47;5096804;28;44759;-86
2023/10/27 01:02:18;;;;;;;;;1.67;1.67;;;;;13.15;95.13;98613.75;5093047;28;45307;-90
2023/10/27 01:04:44;;;;;;;;;4.67;2.00;;;;;13.42;94.97;98658.28;5089428;27;45547;-92
2023/10/27 01:07:09;;;;;;;;;3.00;3.00;;;;;13.40;94.96;98654.91;5083908;28;46962;-89
2023/10/27 01:09:35;;;;;;;;;3.00;3.00;;;;;13.37;95.01;98654.38;5083383;27;45243;-86
2023/10/27 01:12:00;;;;;;;;;3.33;3.33;;;;;13.30;95.58;98653.31;5084552;27;45260;-84
2023/10/27 01:14:27;;;;;;;;;2.00;2.00;;;;;13.31;95.30;98655.81;5084316;27;45272;-84
2023/10/27 01:16:52;;;;;;;;;3.00;2.00;;;;;13.07;95.34;98620.81;5081594;27;45445;-80
2023/10/27 01:19:18;;;;;;;;;4.00;2.33;;;;;13.17;95.26;98634.94;5084075;27;45392;-83
2023/10/27 01:21:43;;;;;;;;;2.67;2.67;;;;;13.24;95.89;98655.56;5080763;27;45342;-84
2023/10/27 01:24:09;;;;;;;;;4.00;4.00;;;;;13.27;95.52;98665.09;5080823;27;45402;-84
2023/10/27 01:26:34;;;;;;;;;2.00;2.00;;;;;13.15;95.63;98650.25;5080918;27;45985;-82
2023/10/27 01:29:00;;;;;;;;;3.00;3.00;;;;;13.04;95.24;98643.31;5080620;27;45247;-85
2023/10/27 01:31:26;;;;;;;;;2.67;2.67;;;;;13.19;96.04;98663.19;5096119;27;45342;-83
2023/10/27 01:33:51;;;;;;;;;4.00;3.00;;;;;13.15;95.95;98660.94;5080813;27;45453;-80
2023/10/27 01:36:16;;;;;;;;;2.33;2.33;;;;;13.18;95.69;98668.66;5079278;28;46224;-81
2023/10/27 01:38:42;;;;;;;;;2.00;2.00;;;;;13.12;95.33;98650.56;5079411;27;45349;-83
2023/10/27 01:41:07;;;;;;;;;2.33;2.33;;;;;13.16;95.36;98663.47;5079017;28;59185;-83
2023/10/27 01:43:35;;;;;;;;;2.00;2.00;;;;;13.10;95.17;98661.38;5078922;27;55554;-83
2023/10/27 01:46:01;;;;;;;;;1.33;1.00;;;;;13.02;95.00;98649.75;5081039;27;45431;-80
2023/10/27 01:48:26;;;;;;;;;1.00;1.00;;;;;13.11;94.25;98672.91;5080062;28;45422;-81
2023/10/27 01:50:51;;;;;;;;;1.67;1.67;;;;;13.10;93.73;98680.06;5079726;27;58208;-81
2023/10/27 01:53:16;;;;;;;;;1.00;1.00;;;;;12.95;93.27;98653.03;5081723;27;45412;-81
2023/10/27 01:55:42;;;;;;;;;3.00;1.00;;;;;13.00;92.91;98664.09;5079607;28;58881;-86
2023/10/27 01:58:08;;;;;;;;;2.00;2.00;;;;;13.05;93.28;98678.84;5082399;27;45331;-80
2023/10/27 02:00:34;;;;;;;;;1.00;1.00;;;;;12.96;92.91;98675.22;5084298;27;45255;-82
2023/10/27 02:02:59;;;;;;;;;0.33;0.33;;;;;12.86;92.49;98677.94;5082926;28;45483;-81
2023/10/27 02:05:24;;;;;;;;;3.33;1.67;;;;;12.74;92.63;98657.75;5082544;27;45595;-82
2023/10/27 02:07:49;;;;;;;;;2.00;2.00;;;;;12.75;92.22;98678.09;5085680;27;45361;-86
2023/10/27 02:10:15;;;;;;;;;1.00;1.00;;;;;12.66;92.76;98679.00;5081808;28;59422;-86
2023/10/27 02:12:40;;;;;;;;;1.00;1.00;;;;;12.61;92.95;98681.25;5081982;27;45370;-87
2023/10/27 02:15:06;;;;;;;;;2.00;1.00;;;;;12.52;92.92;98669.66;5081542;27;45305;-87
2023/10/27 02:17:32;;;;;;;;;4.00;2.00;;;;;12.57;92.89;98685.19;5084546;27;45788;-83
2023/10/27 02:19:58;;;;;;;;;2.00;2.00;;;;;12.33;92.78;98657.19;5090216;27;45335;-81
2023/10/27 02:22:23;;;;;;;;;1.33;1.33;;;;;12.51;93.23;98694.63;5089937;28;45394;-87
2023/10/27 02:24:48;;;;;;;;;4.33;3.00;;;;;12.37;93.41;98668.44;5085729;27;46051;-85
2023/10/27 02:27:15;;;;;;;;;1.00;1.00;;;;;12.44;94.31;98687.34;5084914;27;45235;-84
2023/10/27 02:29:40;;;;;;;;;3.00;2.00;;;;;12.40;93.36;98686.78;5082187;27;45239;-86
2023/10/27 02:32:06;;;;;;;;;1.00;1.00;;;;;12.31;93.61;98676.97;5081912;27;45481;-85
2023/10/27 02:34:32;;;;;;;;;1.67;1.67;;;;;12.33;93.30;98689.19;5095884;27;46929;-82
2023/10/27 02:36:57;;;;;;;;;3.00;2.00;;;;;12.33;94.02;98688.34;5096026;27;44810;-81
2023/10/27 02:39:22;;;;;;;;;4.00;2.67;;;;;12.22;93.88;98678.69;5094735;27;44771;-82
2023/10/27 02:41:47;;;;;;;;;1.67;1.67;;;;;12.27;94.30;98687.09;5091673;28;47318;-87
2023/10/27 02:44:13;;;;;;;;;2.33;1.00;;;;;12.16;93.70;98663.28;5091555;27;45359;-82
2023/10/27 02:46:39;;;;;;;;;1.00;1.00;;;;;12.25;93.73;98686.41;5093671;28;50306;-87
2023/10/27 02:49:05;;;;;;;;;2.67;1.00;;;;;12.23;94.08;98695.50;5088945;27;44716;-86
2023/10/27 02:51:31;;;;;;;;;2.00;2.00;;;;;12.13;93.84;98678.72;5093549;27;45334;-89
2023/10/27 02:53:56;;;;;;;;;1.00;1.00;;;;;11.91;93.72;98651.38;5084742;27;47568;-90
2023/10/27 02:56:22;;;;;;;;;1.00;1.00;;;;;12.06;93.75;98667.75;5082196;27;45443;-91
2023/10/27 02:58:47;;;;;;;;;1.00;1.00;;;;;12.14;94.10;98685.72;5097184;27;45259;-90
2023/10/27 03:01:15;;;;;;;;;3.00;1.00;;;;;12.12;93.90;98693.88;5082551;27;45242;-91
2023/10/27 03:03:42;;;;;;;;;4.33;1.33;;;;;12.09;93.73;98691.47;5081409;27;45395;-87
2023/10/27 03:06:07;;;;;;;;;1.00;1.00;;;;;12.04;93.69;98691.88;5081889;27;45393;-83
2023/10/27 03:08:33;;;;;;;;;3.00;1.00;;;;;12.04;93.82;98691.06;5085431;27;45355;-87
2023/10/27 03:10:59;;;;;;;;;3.00;2.00;;;;;11.85;93.65;98661.75;5091664;28;44890;-83
2023/10/27 03:13:24;;;;;;;;;1.67;1.67;;;;;12.03;93.78;98703.53;5094518;27;50872;-87
2023/10/27 03:15:49;;;;;;;;;2.00;1.00;;;;;11.80;93.49;98671.00;5096121;27;44713;-85
2023/10/27 03:18:15;;;;;;;;;2.67;2.00;;;;;11.96;93.69;98702.41;5095356;27;45310;-82
2023/10/27 03:20:40;;;;;;;;;2.00;2.00;;;;;11.94;93.04;98695.53;5088426;28;45569;-80
2023/10/27 03:23:05;;;;;;;;;1.33;1.00;;;;;11.70;93.69;98655.97;5083205;28;49601;-87
2023/10/27 03:25:31;;;;;;;;;3.33;1.00;;;;;11.99;93.34;98699.47;5087341;27;45338;-82
2023/10/27 03:27:56;;;;;;;;;5.00;1.00;;;;;12.03;93.09;98705.34;5084124;28;45422;-84
2023/10/27 03:30:22;;;;;;;;;2.00;2.00;;;;;11.97;93.16;98692.59;5080638;27;45606;-86
2023/10/27 03:32:48;;;;;;;;;3.33;2.00;;;;;12.07;92.98;98696.09;5080017;27;45305;-85
2023/10/27 03:35:14;;;;;;;;;2.00;2.00;;;;;12.02;92.94;98693.03;5081811;27;45209;-84
2023/10/27 03:37:39;;;;;;;;;3.00;2.00;;;;;12.16;92.79;98711.25;5083487;27;45289;-85
2023/10/27 03:40:05;;;;;;;;;2.00;2.00;;;;;12.12;92.53;98704.53;5085349;28;45630;-86
2023/10/27 03:42:30;;;;;;;;;3.00;2.00;;;;;12.05;92.21;98687.41;5086370;27;45331;-79
2023/10/27 03:44:56;;;;;;;;;5.33;2.33;;;;;12.02;92.31;98682.38;5080721;27;45398;-88
2023/10/27 03:47:21;;;;;;;;;2.33;2.00;;;;;12.29;92.07;98717.13;5079195;28;45444;-89
2023/10/27 03:49:46;;;;;;;;;3.00;2.33;;;;;12.24;91.99;98708.72;5079859;28;45511;-90
2023/10/27 03:52:12;;;;;;;;;3.00;2.00;;;;;12.34;91.93;98720.19;5081076;28;52772;-91
2023/10/27 03:54:37;;;;;;;;;2.33;2.33;;;;;12.36;91.57;98718.22;5081444;28;47013;-88
2023/10/27 03:57:02;;;;;;;;;2.00;2.00;;;;;12.33;91.82;98710.50;5083670;28;45275;-87
2023/10/27 03:59:28;;;;;;;;;3.00;1.00;;;;;12.32;91.90;98708.81;5100126;27;45535;-88
2023/10/27 04:01:53;;;;;;;;;2.67;1.33;;;;;12.38;91.76;98716.28;5101793;27;45157;-85
2023/10/27 04:04:20;;;;;;;;;4.00;2.00;;;;;12.19;91.80;98680.78;5097408;27;45452;-86
2023/10/27 04:06:53;;;;;;;;;2.67;1.00;;;;;12.37;91.55;98713.75;5091939;27;45329;-83
2023/10/27 04:09:19;;;;;;;;;2.00;2.00;;;;;12.15;91.78;98672.25;5084248;28;45299;-87
2023/10/27 04:11:44;;;;;;;;;2.33;2.33;;;;;12.32;91.48;98706.16;5083016;28;45449;-87
2023/10/27 04:14:09;;;;;;;;;3.33;2.33;;;;;12.38;91.51;98715.44;5082451;28;63497;-87
2023/10/27 04:16:35;;;;;;;;;6.00;3.00;;;;;12.34;91.84;98714.84;5084157;28;45436;-85
2023/10/27 04:19:00;;;;;;;;;3.00;2.33;;;;;12.02;92.14;98679.69;5086707;28;45304;-88
2023/10/27 04:21:26;;;;;;;;;4.67;1.33;;;;;12.09;92.28;98699.44;5087251;27;45486;-87
2023/10/27 04:23:51;;;;;;;;;3.00;3.00;;;;;12.18;92.85;98719.94;5083459;27;45308;-86
2023/10/27 04:26:17;;;;;;;;;1.67;1.67;;;;;12.04;92.90;98704.38;5085725;27;45347;-84
2023/10/27 04:28:42;;;;;;;;;2.00;2.00;;;;;12.14;92.88;98723.03;5087377;28;45326;-85
2023/10/27 04:31:08;;;;;;;;;4.00;2.00;;;;;12.06;92.70;98716.56;5084257;27;45428;-87
2023/10/27 04:33:37;;;;;;;;;2.67;2.67;;;;;12.08;93.50;98727.06;5084564;27;45329;-81
2023/10/27 04:36:04;;;;;;;;;2.00;1.00;;;;;12.13;93.25;98726.69;5083771;27;45527;-91
2023/10/27 04:38:29;;;;;;;;;2.00;2.00;;;;;12.01;93.74;98717.97;5083374;28;45786;-91
2023/10/27 04:40:54;;;;;;;;;2.33;1.33;;;;;11.68;93.74;98666.75;5082341;28;60669;-91
2023/10/27 04:43:21;;;;;;;;;4.33;3.00;;;;;12.04;94.11;98728.34;5084325;27;45400;-91
2023/10/27 04:45:46;;;;;;;;;3.00;1.67;;;;;12.02;93.67;98722.31;5086332;28;45278;-91
2023/10/27 04:48:11;;;;;;;;;2.67;2.33;;;;;12.19;93.39;98737.59;5087150;27;45417;-91
2023/10/27 04:50:37;;;;;;;;;3.00;3.00;;;;;12.17;93.42;98728.06;5085131;27;45233;-90
2023/10/27 04:53:02;;;;;;;;;3.67;3.00;;;;;12.13;93.29;98711.53;5089660;27;46502;-89
2023/10/27 04:55:27;;;;;;;;;3.33;3.33;;;;;12.32;92.97;98738.16;5087860;28;45359;-89
2023/10/27 04:57:53;;;;;;;;;3.00;3.00;;;;;12.44;92.44;98746.84;5083777;28;45202;-89
2023/10/27 05:00:18;;;;;;;;;2.67;2.00;;;;;12.49;92.08;98757.06;5089603;27;46501;-83
2023/10/27 05:02:43;;;;;;;;;3.00;3.00;;;;;12.52;91.65;98759.47;5083251;27;45241;-90
2023/10/27 05:05:09;;;;;;;;;5.33;3.00;;;;;12.39;91.03;98733.94;5083056;28;45467;-89
2023/10/27 05:07:36;;;;;;;;;4.00;2.00;;;;;12.51;91.17;98747.13;5082749;27;45242;-88
2023/10/27 05:10:01;;;;;;;;;6.00;3.00;;;;;12.43;91.24;98741.66;5082312;27;45349;-88
2023/10/27 05:12:26;;;;;;;;;3.00;3.00;;;;;12.48;91.08;98752.72;5081742;28;53114;-88
2023/10/27 05:14:51;;;;;;;;;1.33;1.33;;;;;12.37;90.75;98743.06;5083411;27;45416;-90
2023/10/27 05:17:17;;;;;;;;;3.67;2.00;;;;;12.44;90.99;98751.31;5084176;27;45261;-91
2023/10/27 05:19:42;;;;;;;;;2.33;2.00;;;;;12.32;91.42;98754.13;5083752;28;45376;-90
2023/10/27 05:22:08;;;;;;;;;2.00;2.00;;;;;12.32;91.56;98763.97;5085073;27;45332;-89
2023/10/27 05:24:34;;;;;;;;;2.67;2.00;;;;;12.08;92.12;98727.06;5090573;27;45325;-88
2023/10/27 05:26:59;;;;;;;;;2.00;2.00;;;;;12.11;91.94;98745.47;5093794;27;45382;-87
2023/10/27 05:29:26;;;;;;;;;1.50;1.50;;;;;12.28;92.10;98765.25;5082017;27;46067;-87
2023/10/27 05:31:52;;;;;;;;;2.00;2.00;;;;;12.28;92.16;98768.75;5102739;27;45308;-87
2023/10/27 05:34:17;;;;;;;;;2.00;2.00;;;;;12.17;91.55;98746.72;5097778;27;45384;-89
2023/10/27 05:36:42;;;;;;;;;2.67;2.00;;;;;12.25;91.50;98753.03;5089755;28;44987;-90
2023/10/27 05:39:08;;;;;;;;;2.00;2.00;;;;;12.36;91.49;98765.34;5087707;27;46183;-81
2023/10/27 05:41:33;;;;;;;;;2.33;2.00;;;;;12.41;91.23;98757.78;5089076;28;44617;-93
2023/10/27 05:43:58;;;;;;;;;2.00;1.00;;;;;12.41;90.75;98760.47;5093686;28;45299;-91
2023/10/27 05:46:24;;;;;;;;;10.00;2.00;;;;;12.33;90.74;98744.31;5093658;27;44927;-85
2023/10/27 05:48:49;;;;;;;;;2.33;2.00;;;;;12.34;90.73;98752.16;5091405;27;56190;-89
2023/10/27 05:51:15;;;;;;;;;2.33;2.33;;;;;12.37;90.77;98751.91;5090585;27;44711;-84
2023/10/27 05:53:41;;;;;;;;;1.67;1.67;;;;;12.40;90.90;98754.28;5091313;28;45283;-86
2023/10/27 05:56:06;;;;;;;;;1.00;1.00;;;;;12.37;90.81;98757.25;5089357;27;45225;-92
2023/10/27 05:58:33;;;;;;;;;4.33;2.67;;;;;12.33;90.53;98746.97;5087375;27;45245;-89
2023/10/27 06:00:59;;;;;;;;;3.00;2.00;;;;;12.29;90.79;98749.09;5085511;27;45422;-89
2023/10/27 06:03:24;;;;;;;;;2.33;1.67;;;;;12.27;90.53;98736.91;5086061;28;45267;-89
2023/10/27 06:05:52;;;;;;;;;3.00;1.00;;;;;12.09;90.45;98716.28;5085478;27;45332;-86
2023/10/27 06:08:20;;;;;;;;;2.00;2.00;;;;;12.27;90.74;98751.06;5083681;27;46510;-88
2023/10/27 06:10:45;;;;;;;;;2.33;1.00;;;;;12.10;90.95;98727.78;5083796;27;45306;-88
2023/10/27 06:13:12;;;;;;;;;4.33;3.00;;;;;12.16;91.38;98743.22;5083746;27;45214;-87
2023/10/27 06:15:38;;;;;;;;;2.00;2.00;;;;;11.98;91.75;98724.44;5083557;27;45327;-86
2023/10/27 06:18:04;;;;;;;;;4.33;3.00;;;;;12.07;91.76;98746.72;5084683;28;68220;-87
2023/10/27 06:20:29;;;;;;;;;5.00;3.00;;;;;12.04;91.87;98749.66;5084482;27;45260;-87
2023/10/27 06:22:54;;;;;;;;;4.00;2.00;;;;;11.87;92.24;98721.06;5081916;27;45600;-85
2023/10/27 06:25:20;;;;;;;;;2.00;2.00;;;;;11.83;92.27;98725.81;5080810;27;45259;-85
2023/10/27 06:27:45;;;;;;;;;3.00;2.00;;;;;11.96;92.53;98746.84;5080604;27;45406;-87
2023/10/27 06:30:11;;;;;;;;;3.00;2.00;;;;;12.02;92.91;98765.78;5083596;27;45396;-82
2023/10/27 06:32:37;;;;;;;;;2.67;2.00;;;;;11.93;92.74;98749.78;5089520;27;45396;-88
2023/10/27 06:35:03;;;;;;;;;2.00;2.00;;;;;11.91;92.53;98746.44;5093740;27;44990;-82
2023/10/27 06:37:29;;;;;;;;;4.00;2.00;;;;;12.01;92.40;98771.28;5085649;27;46217;-81
2023/10/27 06:39:58;;;;;;;;;5.33;3.00;;;;;11.98;92.89;98775.06;5083359;27;45351;-85
2023/10/27 06:42:25;;;;;;;;;3.33;3.00;;;;;11.93;92.51;98763.97;5097706;27;45341;-85
2023/10/27 06:44:51;;;;;;;;;2.67;1.00;;;;;12.01;92.23;98771.28;5082497;27;45321;-90
2023/10/27 06:47:18;;;;;;;;;5.33;4.00;;;;;12.01;92.35;98768.59;5082278;27;45500;-89
2023/10/27 06:49:44;;;;;;;;;1.33;1.33;;;;;11.80;91.91;98742.06;5081795;27;45413;-87
2023/10/27 06:52:09;;;;;;;;;2.00;2.00;;;;;11.91;92.11;98759.75;5082306;28;45352;-82
2023/10/27 06:54:35;;;;;;;;;1.00;1.00;;;;;12.00;91.75;98774.91;5083213;27;45242;-84
2023/10/27 06:57:00;;;;;;;;;1.00;1.00;;;;;11.89;91.24;98757.22;5083157;27;45301;-83
2023/10/27 06:59:28;;;;;;;;;2.33;2.00;;;;;12.04;91.32;98784.31;5086193;28;45300;-85
2023/10/27 07:01:54;;;;;;;;;3.33;2.00;;;;;11.91;90.74;98757.94;5101941;27;45381;-84
2023/10/27 07:04:20;;;;;;;;;3.00;2.00;;;;;12.07;90.24;98776.03;5084931;27;45428;-83
2023/10/27 07:06:45;;;;;;;;;4.33;1.00;;;;;12.03;90.40;98774.63;5090396;27;44996;-84
2023/10/27 07:09:10;;;;;;;;;2.00;2.00;;;;;11.99;89.54;98763.41;5094164;27;45338;-82
2023/10/27 07:11:36;;;;;;;;;3.33;2.00;;;;;12.03;89.90;98779.97;5091944;27;44730;-80
2023/10/27 07:14:01;;;;;;;;;2.00;2.00;;;;;12.14;90.34;98805.63;5088760;27;45326;-80
2023/10/27 07:16:28;;;;;;;;;2.00;2.00;;;;;11.95;90.02;98767.31;5082413;28;65573;-82
2023/10/27 07:18:54;;;;;;;;;1.00;1.00;;;;;12.16;90.18;98806.34;5080251;27;45463;-83
2023/10/27 07:21:19;;;;;;;;;2.67;2.33;;;;;12.24;89.55;98814.44;5077257;28;45378;-84
2023/10/27 07:23:44;;;;;;;;;1.33;1.33;;;;;12.37;89.00;98805.22;5078734;28;45617;-82
2023/10/27 07:26:14;;;;;;;;;5.00;3.00;;;;;12.40;88.61;98809.44;5077980;27;45351;-84
2023/10/27 07:28:41;;;;;;;;;3.00;1.33;;;;;12.37;88.81;98802.56;5078763;27;45366;-82
2023/10/27 07:31:07;;;;;;;;;2.00;2.00;;;;;12.32;88.44;98785.28;5078159;27;45359;-85
2023/10/27 07:33:33;;;;;;;;;4.00;3.00;;;;;12.52;88.05;98818.97;5077248;28;45557;-85
2023/10/27 07:35:58;;;;;;;;;3.67;2.67;;;;;12.48;88.15;98825.53;5094645;27;45354;-83
2023/10/27 07:38:26;;;;;;;;;4.67;4.67;;;;;12.46;88.17;98819.50;5079441;27;45302;-87
2023/10/27 07:40:55;;;;;;;;;4.33;1.33;;;;;12.34;88.11;98818.81;5079339;27;45334;-85
2023/10/27 07:43:20;;;;;;;;;4.00;4.00;;;;;12.53;87.66;98836.66;5079759;27;45252;-88
2023/10/27 07:45:46;;;;;;;;;2.00;2.00;;;;;12.51;87.71;98832.44;5078213;27;45296;-82
2023/10/27 07:48:11;;;;;;;;;2.00;2.00;;;;;12.54;87.46;98829.47;5078887;27;45344;-82
2023/10/27 07:50:37;;;;;;;;;4.00;4.00;;;;;12.61;87.07;98833.25;5075384;28;70592;-82
2023/10/27 07:53:03;;;;;;;;;2.67;2.67;;;;;12.58;86.92;98810.38;5079417;27;45427;-81
2023/10/27 07:55:28;;;;;;;;;4.00;2.33;;;;;12.68;86.20;98824.56;5078562;27;46326;-80
2023/10/27 07:57:53;;;;;;;;;2.00;2.00;;;;;12.78;86.23;98832.56;5077093;27;45248;-80
2023/10/27 08:00:19;;;;;;;;;3.33;3.00;;;;;12.89;85.74;98847.53;5077729;28;54940;-83
2023/10/27 08:02:44;;;;;;;;;4.00;2.00;;;;;12.86;85.51;98842.50;5077643;27;45261;-83
2023/10/27 08:05:09;;;;;;;;;4.33;1.00;;;;;12.86;85.31;98854.00;5077384;28;56220;-86
2023/10/27 08:07:36;;;;;;;;;2.00;2.00;;;;;12.90;85.58;98847.41;5096718;27;45340;-83
2023/10/27 08:10:01;;;;;;;;;4.00;2.33;;;;;13.04;85.41;98855.97;5078913;27;45717;-84
2023/10/27 08:12:27;;;;;;;;;2.33;2.00;;;;;13.16;84.98;98870.81;5081032;27;45819;-82
2023/10/27 08:14:52;;;;;;;;;2.00;2.00;;;;;13.11;84.40;98859.72;5079550;27;65541;-82
2023/10/27 08:17:17;;;;;;;;;2.00;2.00;;;;;13.18;84.12;98858.16;5077741;27;45346;-82
2023/10/27 08:19:43;;;;;;;;;4.33;2.00;;;;;13.16;84.51;98852.13;5077394;27;45688;-83
2023/10/27 08:22:08;;;;;;;;;2.33;1.33;;;;;13.09;84.61;98845.69;5075189;27;47426;-83
2023/10/27 08:24:33;;;;;;;;;4.33;3.00;;;;;13.14;84.07;98851.41;5076581;27;46165;-84
2023/10/27 08:26:58;;;;;;;;;2.00;0.67;;;;;13.28;84.17;98853.66;5075075;28;48935;-82
2023/10/27 08:29:25;;;;;;;;;4.00;1.33;;;;;12.93;83.29;98774.25;5076874;27;45321;-82
2023/10/27 08:31:51;;;;;;;;;4.00;2.00;;;;;13.31;83.17;98823.19;5075421;27;45635;-85
2023/10/27 08:34:16;;;;;;;;;2.00;2.00;;;;;13.38;82.90;98827.78;5076945;27;45351;-86
2023/10/27 08:36:42;;;;;;;;;4.00;2.00;;;;;13.35;82.52;98800.53;5077433;28;45370;-85
2023/10/27 08:39:08;;;;;;;;;4.00;2.00;;;;;13.47;81.96;98832.25;5078686;27;45407;-81
2023/10/27 08:41:36;;;;;;;;;1.67;1.67;;;;;13.55;81.46;98845.72;5078113;27;45589;-83
2023/10/27 08:44:02;;;;;;;;;2.00;2.00;;;;;13.37;81.39;98803.88;5077225;27;45907;-87
2023/10/27 08:46:27;;;;;;;;;2.67;1.00;;;;;13.60;80.63;98828.38;5077844;27;44641;-85
2023/10/27 08:48:53;;;;;;;;;1.00;1.00;;;;;13.64;81.02;98835.09;5077004;28;61195;-85
2023/10/27 08:51:20;;;;;;;;;2.00;2.00;;;;;13.47;80.25;98807.38;5076944;28;45407;-85
2023/10/27 08:53:46;;;;;;;;;2.00;2.00;;;;;13.49;79.31;98803.56;5080980;27;46485;-82
2023/10/27 08:56:13;;;;;;;;;1.00;1.00;;;;;13.65;79.44;98828.78;5080365;27;45507;-86
2023/10/27 08:58:50;;;;;;;;;5.33;2.67;;;;;13.82;79.79;98860.06;5080828;28;45352;-82
2023/10/27 09:01:15;;;;;;;;;3.00;1.33;;;;;13.90;79.15;98861.97;5081512;27;45385;-85
2023/10/27 09:03:41;;;;;;;;;2.67;1.00;;;;;13.93;78.63;98851.81;5080584;28;45301;-83
2023/10/27 09:06:07;;;;;;;;;4.00;1.00;;;;;13.97;78.54;98871.94;5083749;27;45353;-84
2023/10/27 09:08:32;;;;;;;;;1.00;1.00;;;;;13.92;78.03;98860.81;5082688;27;45365;-89
2023/10/27 09:10:59;;;;;;;;;1.00;1.00;;;;;14.05;78.24;98866.66;5081523;27;45349;-82
2023/10/27 09:13:25;;;;;;;;;5.00;1.00;;;;;14.03;77.07;98846.41;5080475;27;45275;-85
2023/10/27 09:15:51;;;;;;;;;5.33;2.00;;;;;14.38;76.39;98899.94;5081173;27;45259;-80
2023/10/27 09:18:17;;;;;;;;;5.00;1.00;;;;;14.49;76.32;98893.56;5082461;28;45495;-83
2023/10/27 09:20:50;;;;;;;;;1.00;1.00;;;;;14.52;76.00;98893.25;5084752;28;45300;-87
2023/10/27 09:23:16;;;;;;;;;1.00;1.00;;;;;14.47;76.01;98884.88;5083030;27;45765;-85
2023/10/27 09:25:42;;;;;;;;;3.00;1.00;;;;;14.60;75.40;98871.94;5079980;28;45385;-89
2023/10/27 09:28:07;;;;;;;;;1.00;1.00;;;;;14.78;74.43;98871.09;5082702;27;45346;-83
2023/10/27 09:30:37;;;;;;;;;1.00;1.00;;;;;14.52;73.88;98791.63;5083878;27;45255;-84
2023/10/27 09:33:21;;;;;;;;;2.33;1.00;;;;;15.13;73.61;98879.06;5098787;27;47968;-87
2023/10/27 09:35:48;;;;;;;;;2.67;2.00;;;;;15.15;73.42;98869.03;5080245;28;45370;-87
2023/10/27 09:38:15;;;;;;;;;3.00;1.00;;;;;15.11;73.25;98870.38;5082868;28;45368;-87
2023/10/27 09:40:42;;;;;;;;;4.00;2.00;;;;;15.18;73.56;98879.44;5090253;27;45389;-89
2023/10/27 09:43:15;;;;;;;;;3.00;1.00;;;;;15.30;72.99;98883.53;5083691;27;45848;-86
2023/10/27 09:45:50;;;;;;;;;1.00;1.00;;;;;15.29;71.63;98881.84;5085283;27;45329;-84
2023/10/27 09:48:21;;;;;;;;;5.00;2.00;;;;;15.19;72.52;98873.06;5088069;27;45257;-90
2023/10/27 09:50:48;;;;;;;;;5.00;2.00;;;;;15.33;72.11;98888.56;5087622;28;45328;-87
2023/10/27 09:53:14;;;;;;;;;3.00;2.00;;;;;15.41;72.25;98889.63;5092033;27;46216;-82
2023/10/27 09:55:40;;;;;;;;;3.00;1.00;;;;;15.22;71.97;98863.88;5092920;27;44773;-86
2023/10/27 09:58:06;;;;;;;;;1.33;1.33;;;;;15.30;71.57;98864.78;5083339;28;45298;-88
2023/10/27 10:00:32;;;;;;;;;2.00;2.00;;;;;15.35;71.95;98897.28;5082278;28;45486;-91
2023/10/27 10:02:58;;;;;;;;;3.00;2.00;;;;;15.37;71.73;98888.28;5081552;28;45302;-85
2023/10/27 10:05:24;;;;;;;;;4.67;1.67;;;;;15.31;71.43;98852.22;5083367;27;45601;-83
2023/10/27 10:07:56;;;;;;;;;3.33;1.00;;;;;15.56;70.89;98858.56;5083813;28;44676;-88
2023/10/27 10:10:32;;;;;;;;;2.67;2.67;;;;;15.85;70.25;98888.53;5087526;27;45300;-89
2023/10/27 10:12:59;;;;;;;;;3.67;2.00;;;;;16.08;69.21;98904.06;5086756;27;45413;-83
2023/10/27 10:15:27;;;;;;;;;2.00;1.67;;;;;16.21;68.21;98899.91;5093093;27;45251;-84
2023/10/27 10:17:52;;;;;;;;;2.67;2.67;;;;;16.32;67.30;98896.09;5098471;27;45242;-83
2023/10/27 10:20:47;;;;;;;;;2.33;1.33;;;;;16.23;67.11;98854.16;5093795;27;45166;-85
2023/10/27 10:23:14;;;;;;;;;2.33;1.00;;;;;16.69;65.67;98878.75;5082519;27;45332;-85
2023/10/27 10:25:56;;;;;;;;;4.00;2.00;;;;;16.82;65.87;98899.75;5081095;27;45346;-85
2023/10/27 10:28:29;;;;;;;;;3.33;1.00;;;;;16.78;65.35;98891.16;5083055;28;45276;-84
2023/10/27 10:31:07;;;;;;;;;2.33;2.00;;;;;16.59;65.30;98894.13;5082637;27;45553;-84
2023/10/27 10:33:34;;;;;;;;;2.00;2.00;;;;;16.52;65.84;98897.47;5082645;27;46272;-89
2023/10/27 10:36:15;;;;;;;;;4.00;2.67;;;;;16.50;66.81;98893.28;5085328;27;45430;-89
2023/10/27 10:39:10;;;;;;;;;7.67;2.00;;;;;16.56;66.53;98881.06;5085968;27;45203;-90
2023/10/27 10:41:42;;;;;;;;;3.00;1.33;;;;;16.74;66.79;98887.13;5086978;27;45167;-87
2023/10/27 10:44:15;;;;;;;;;5.00;3.00;;;;;16.84;65.63;98860.13;5084206;27;45914;-88
2023/10/27 10:46:43;;;;;;;;;2.67;2.00;;;;;16.96;64.61;98883.78;5085052;28;45286;-82
2023/10/27 10:49:09;;;;;;;;;4.67;2.00;;;;;17.12;64.52;98882.94;5080359;28;45303;-86
2023/10/27 10:51:37;;;;;;;;;2.00;1.67;;;;;17.61;63.60;98893.63;5080630;27;45244;-84
2023/10/27 10:54:11;;;;;;;;;2.67;2.33;;;;;17.93;61.97;98881.94;5079782;27;46693;-84
2023/10/27 10:56:36;;;;;;;;;2.00;2.00;;;;;18.33;61.04;98872.81;5080534;27;45898;-83
2023/10/27 10:59:03;;;;;;;;;2.67;2.00;;;;;18.81;60.92;98876.22;5081616;27;45391;-82
2023/10/27 11:01:29;;;;;;;;;5.67;2.67;;;;;19.03;58.64;98863.78;5082160;27;45510;-84
2023/10/27 11:03:56;;;;;;;;;2.67;1.67;;;;;19.09;58.77;98871.13;5097890;27;47227;-84
2023/10/27 11:06:25;;;;;;;;;2.00;2.00;;;;;18.98;57.65;98876.94;5098316;27;45395;-87
2023/10/27 11:08:51;;;;;;;;;3.00;3.00;;;;;18.51;58.20;98840.25;5084806;28;45287;-84
2023/10/27 11:11:18;;;;;;;;;4.00;4.00;;;;;18.55;59.32;98871.19;5086513;28;45508;-84
2023/10/27 11:13:44;;;;;;;;;3.00;3.00;;;;;18.82;58.06;98867.97;5086239;28;45472;-85
2023/10/27 11:16:23;;;;;;;;;2.33;2.33;;;;;18.92;56.95;98872.28;5078528;28;45456;-82
2023/10/27 11:18:51;;;;;;;;;4.00;3.00;;;;;18.74;57.77;98851.88;5079484;27;45449;-84
2023/10/27 11:21:20;;;;;;;;;2.33;2.33;;;;;18.85;57.36;98867.59;5078190;28;45295;-85
2023/10/27 11:23:47;;;;;;;;;6.33;3.67;;;;;18.97;57.48;98870.72;5078610;28;45952;-85
2023/10/27 11:26:14;;;;;;;;;2.67;2.00;;;;;19.29;56.75;98871.44;5078897;28;45350;-84
2023/10/27 11:28:40;;;;;;;;;4.33;2.00;;;;;19.64;55.61;98861.81;5079563;27;45282;-84
2023/10/27 11:31:23;;;;;;;;;3.00;2.00;;;;;19.85;54.33;98859.22;5080808;27;45527;-84